createdAt,value
2023-03-26T23:12:05.712Z,19.70
2023-03-26T23:13:06.094Z,19.70
2023-03-26T23:14:05.813Z,19.70
2023-03-26T23:15:05.581Z,19.70
2023-03-26T23:16:05.627Z,19.70
2023-03-26T23:16:10.801Z,19.70
2023-03-26T23:17:02.285Z,13.60
2023-03-26T23:18:02.366Z,13.60
2023-03-26T23:19:01.965Z,13.60
2023-03-26T23:20:02.224Z,13.60
2023-03-26T23:21:01.810Z,13.60
2023-03-26T23:22:02.194Z,18.50
2023-03-26T23:23:02.238Z,18.50
2023-03-26T23:24:01.892Z,18.50
2023-03-26T23:25:01.883Z,18.50
2023-03-26T23:26:02.242Z,18.50
2023-03-26T23:27:02.790Z,14.60
2023-03-26T23:28:02.915Z,14.60
2023-03-26T23:29:02.568Z,14.60
2023-03-26T23:30:02.954Z,14.60
2023-03-26T23:31:02.675Z,14.60
2023-03-26T23:32:02.711Z,17.40
2023-03-26T23:33:03.133Z,17.40
2023-03-26T23:34:02.575Z,17.40
2023-03-26T23:35:03.113Z,17.40
2023-03-26T23:36:02.941Z,17.40
2023-03-26T23:37:02.367Z,15.40
2023-03-26T23:38:02.021Z,15.40
2023-03-26T23:39:02.407Z,15.40
2023-03-26T23:40:01.948Z,15.40
2023-03-26T23:41:02.288Z,15.40
2023-03-26T23:42:02.797Z,17.60
2023-03-26T23:43:02.430Z,17.60
2023-03-26T23:44:02.289Z,17.60
2023-03-26T23:45:02.808Z,17.60
2023-03-26T23:46:02.726Z,17.60
2023-03-26T23:47:02.486Z,12.60
2023-03-26T23:48:02.773Z,12.60
2023-03-26T23:49:02.886Z,12.60
2023-03-26T23:50:02.827Z,12.60
2023-03-26T23:51:04.566Z,12.60
2023-03-26T23:52:02.229Z,23.60
2023-03-26T23:53:02.185Z,23.60
2023-03-26T23:54:02.077Z,23.60
2023-03-26T23:55:02.212Z,23.60
2023-03-26T23:56:02.282Z,23.60
2023-03-26T23:57:01.977Z,14.70
2023-03-26T23:58:02.043Z,14.70
2023-03-26T23:59:02.295Z,14.70
